Time;durP1;ratioP1;P1;durP2;ratioP2;P2;SDS_P1;SDS_P2;PMS_P1;PMS_P2;Temp;Humidity;BMP_temperature;BMP_pressure;BME280_temperature;BME280_humidity;BME280_pressure;Samples;Min_cycle;Max_cycle;Signal;HPM_P1;HPM_P2
2022/03/27 00:00:47;;;;;;;30.13;18.90;;;;;;;;;;5092193;28;20409;-63
2022/03/27 00:03:13;;;;;;;26.20;17.50;;;;;;;;;;5073983;28;20478;-60
2022/03/27 00:05:39;;;;;;;26.93;16.37;;;;;;;;;;5092111;28;20845;-65
2022/03/27 00:08:05;;;;;;;26.40;15.93;;;;;;;;;;5092055;28;20414;-61
2022/03/27 00:11:23;;;;;;;21.67;15.33;;;;;;;;;;5092256;28;20402;-61
2022/03/27 00:13:21;;;;;;;23.40;14.80;;;;;;;;;;5092058;28;20422;-60
2022/03/27 00:15:47;;;;;;;21.20;15.10;;;;;;;;;;5073910;28;20424;-59
2022/03/27 00:18:13;;;;;;;22.30;15.40;;;;;;;;;;5091971;28;20508;-59
2022/03/27 00:20:39;;;;;;;29.17;15.37;;;;;;;;;;5092095;28;20413;-60
2022/03/27 00:23:05;;;;;;;20.00;14.50;;;;;;;;;;5092271;28;20418;-60
2022/03/27 00:25:31;;;;;;;19.80;14.57;;;;;;;;;;5092132;28;20171;-61
2022/03/27 00:27:59;;;;;;;20.97;13.97;;;;;;;;;;5074091;28;20494;-59
2022/03/27 00:30:26;;;;;;;18.10;13.70;;;;;;;;;;5092287;28;20418;-60
2022/03/27 00:32:57;;;;;;;18.20;13.00;;;;;;;;;;5092357;28;20445;-61
2022/03/27 00:35:23;;;;;;;22.47;15.10;;;;;;;;;;5092494;28;20402;-62
2022/03/27 00:37:51;;;;;;;18.63;12.70;;;;;;;;;;5095935;28;20504;-62
2022/03/27 00:40:17;;;;;;;17.50;12.50;;;;;;;;;;5095790;28;20413;-59
2022/03/27 00:42:45;;;;;;;17.40;13.23;;;;;;;;;;5095833;28;20418;-62
2022/03/27 00:45:11;;;;;;;16.40;12.70;;;;;;;;;;5095709;28;20413;-61
2022/03/27 00:47:44;;;;;;;15.57;11.67;;;;;;;;;;5077454;28;20517;-60
2022/03/27 00:50:10;;;;;;;14.00;11.73;;;;;;;;;;5095690;28;20914;-57
2022/03/27 00:52:39;;;;;;;14.87;12.00;;;;;;;;;;5095702;28;20421;-60
2022/03/27 00:55:05;;;;;;;18.13;13.87;;;;;;;;;;5095692;28;20412;-59
2022/03/27 00:57:31;;;;;;;14.93;11.27;;;;;;;;;;5095407;28;20468;-60
2022/03/27 00:59:57;;;;;;;17.10;12.80;;;;;;;;;;5095602;28;20401;-59
2022/03/27 01:02:25;;;;;;;23.63;12.30;;;;;;;;;;5095598;28;20886;-59
2022/03/27 01:04:53;;;;;;;13.10;11.60;;;;;;;;;;5095402;28;20950;-59
2022/03/27 01:07:19;;;;;;;16.97;11.60;;;;;;;;;;5095265;28;20409;-62
2022/03/27 01:09:48;;;;;;;13.70;11.53;;;;;;;;;;5095386;28;20917;-62
2022/03/27 01:12:14;;;;;;;13.97;10.80;;;;;;;;;;5095456;28;20410;-61
2022/03/27 01:14:40;;;;;;;14.80;11.60;;;;;;;;;;5095269;28;20456;-61
2022/03/27 01:17:08;;;;;;;15.10;11.97;;;;;;;;;;5095227;28;20876;-61
2022/03/27 01:19:54;;;;;;;15.50;12.17;;;;;;;;;;5095022;28;20540;-61
2022/03/27 01:22:20;;;;;;;18.20;12.87;;;;;;;;;;5095274;28;20398;-60
2022/03/27 01:24:47;;;;;;;19.07;13.00;;;;;;;;;;5095090;28;20421;-61
2022/03/27 01:27:13;;;;;;;21.17;14.20;;;;;;;;;;5094986;28;20397;-61
2022/03/27 01:29:39;;;;;;;19.03;13.60;;;;;;;;;;5095004;28;20414;-61
2022/03/27 01:32:06;;;;;;;16.57;13.50;;;;;;;;;;5094902;28;20408;-61
2022/03/27 01:34:33;;;;;;;19.63;14.00;;;;;;;;;;5094931;28;20773;-61
2022/03/27 01:37:04;;;;;;;22.93;15.47;;;;;;;;;;5094796;28;20469;-62
2022/03/27 01:39:30;;;;;;;20.10;14.63;;;;;;;;;;5094725;28;20406;-63
2022/03/27 01:41:56;;;;;;;18.73;14.43;;;;;;;;;;5076705;28;20441;-66
2022/03/27 01:44:22;;;;;;;25.83;16.17;;;;;;;;;;5076793;28;20454;-62
2022/03/27 01:46:48;;;;;;;21.20;14.93;;;;;;;;;;5093934;28;20445;-62
2022/03/27 01:49:16;;;;;;;19.53;15.33;;;;;;;;;;5094081;28;20917;-63
2022/03/27 01:51:42;;;;;;;24.77;16.27;;;;;;;;;;5094522;28;20508;-60
2022/03/27 01:54:09;;;;;;;25.43;16.20;;;;;;;;;;5094505;28;20402;-62
2022/03/27 01:56:37;;;;;;;23.13;15.80;;;;;;;;;;5094428;28;20452;-63
2022/03/27 01:59:04;;;;;;;25.07;15.43;;;;;;;;;;5094477;28;20504;-62
2022/03/27 02:01:30;;;;;;;23.60;15.30;;;;;;;;;;5094408;28;20409;-61
2022/03/27 02:03:56;;;;;;;23.17;16.33;;;;;;;;;;5094491;28;20410;-62
2022/03/27 02:06:23;;;;;;;24.17;15.77;;;;;;;;;;5094521;28;20406;-62
2022/03/27 02:08:53;;;;;;;33.63;16.80;;;;;;;;;;5094209;28;20455;-60
2022/03/27 02:11:20;;;;;;;23.23;16.90;;;;;;;;;;5094220;28;20918;-58
2022/03/27 02:13:46;;;;;;;21.70;15.63;;;;;;;;;;5094289;28;20402;-59
2022/03/27 02:16:12;;;;;;;24.23;15.60;;;;;;;;;;5094114;28;20507;-62
2022/03/27 02:18:41;;;;;;;24.20;14.93;;;;;;;;;;5093980;28;20449;-62
2022/03/27 02:21:07;;;;;;;20.80;15.70;;;;;;;;;;5094054;28;20406;-62
2022/03/27 02:23:33;;;;;;;21.60;15.33;;;;;;;;;;5093954;28;20519;-62
2022/03/27 02:25:59;;;;;;;26.87;16.50;;;;;;;;;;5093958;28;20485;-61
2022/03/27 02:28:25;;;;;;;27.50;18.70;;;;;;;;;;5093989;28;20406;-58
2022/03/27 02:30:52;;;;;;;23.80;17.17;;;;;;;;;;5075464;28;20500;-58
2022/03/27 02:33:18;;;;;;;22.07;14.90;;;;;;;;;;5075458;28;20418;-54
2022/03/27 02:35:44;;;;;;;32.07;16.93;;;;;;;;;;5093688;28;20401;-56
2022/03/27 02:38:10;;;;;;;24.00;16.63;;;;;;;;;;5093563;28;20559;-54
2022/03/27 02:40:37;;;;;;;20.63;15.17;;;;;;;;;;5075343;28;20413;-59
2022/03/27 02:43:03;;;;;;;24.13;14.80;;;;;;;;;;5093623;28;20425;-53
2022/03/27 02:45:30;;;;;;;24.63;16.63;;;;;;;;;;5075299;28;20421;-57
2022/03/27 02:47:56;;;;;;;24.83;16.47;;;;;;;;;;5093604;28;20410;-57
2022/03/27 02:50:22;;;;;;;23.90;15.50;;;;;;;;;;5093493;28;20430;-56
2022/03/27 02:52:48;;;;;;;26.10;16.70;;;;;;;;;;5093306;28;20414;-53
2022/03/27 02:55:14;;;;;;;23.30;15.33;;;;;;;;;;5093370;28;20501;-52
2022/03/27 02:57:40;;;;;;;23.90;16.20;;;;;;;;;;5074897;28;20553;-56
2022/03/27 03:00:07;;;;;;;23.60;16.43;;;;;;;;;;5092788;28;20493;-56
2022/03/27 03:02:33;;;;;;;23.30;16.13;;;;;;;;;;5093097;28;20410;-57
2022/03/27 03:04:59;;;;;;;26.43;15.67;;;;;;;;;;5093139;28;20432;-55
2022/03/27 03:07:26;;;;;;;23.87;16.17;;;;;;;;;;5093272;28;20898;-57
2022/03/27 03:09:53;;;;;;;26.40;16.43;;;;;;;;;;5093311;28;20438;-54
2022/03/27 03:12:19;;;;;;;22.13;15.90;;;;;;;;;;5093020;28;20835;-55
2022/03/27 03:14:45;;;;;;;25.70;16.13;;;;;;;;;;5092893;28;20463;-58
2022/03/27 03:17:11;;;;;;;23.23;15.37;;;;;;;;;;5092826;28;20933;-57
2022/03/27 03:19:37;;;;;;;26.63;16.50;;;;;;;;;;5092787;28;20481;-53
2022/03/27 03:22:04;;;;;;;30.17;17.07;;;;;;;;;;5074606;28;20422;-57
2022/03/27 03:24:30;;;;;;;27.13;16.67;;;;;;;;;;5092766;28;20406;-55
2022/03/27 03:26:56;;;;;;;24.37;16.97;;;;;;;;;;5092947;28;20505;-54
2022/03/27 03:29:23;;;;;;;27.20;17.37;;;;;;;;;;5092904;28;20455;-58
2022/03/27 03:31:49;;;;;;;25.70;16.27;;;;;;;;;;5092968;28;20916;-62
2022/03/27 03:34:15;;;;;;;24.03;16.50;;;;;;;;;;5092590;28;20404;-61
2022/03/27 03:36:41;;;;;;;24.83;16.70;;;;;;;;;;5074228;28;20457;-58
2022/03/27 03:39:07;;;;;;;27.33;17.70;;;;;;;;;;5092626;28;20413;-58
2022/03/27 03:41:33;;;;;;;33.20;16.30;;;;;;;;;;5092740;28;20398;-60
2022/03/27 03:43:59;;;;;;;25.63;17.53;;;;;;;;;;5092600;28;20410;-60
2022/03/27 03:46:25;;;;;;;30.77;16.17;;;;;;;;;;5092706;28;20493;-56
2022/03/27 03:48:51;;;;;;;30.03;16.50;;;;;;;;;;5092367;28;20958;-58
2022/03/27 03:51:17;;;;;;;26.13;16.50;;;;;;;;;;5092376;28;20470;-55
2022/03/27 03:53:43;;;;;;;22.07;15.43;;;;;;;;;;5092392;28;20434;-54
2022/03/27 03:56:11;;;;;;;26.10;16.63;;;;;;;;;;5092149;28;20508;-56
2022/03/27 03:58:37;;;;;;;26.40;16.60;;;;;;;;;;5092495;28;20471;-57
2022/03/27 04:01:03;;;;;;;26.47;16.37;;;;;;;;;;5092743;28;20413;-56
2022/03/27 04:03:29;;;;;;;24.90;16.10;;;;;;;;;;5092727;28;20445;-56
2022/03/27 04:05:55;;;;;;;23.40;14.93;;;;;;;;;;5092890;28;20406;-55
2022/03/27 04:08:24;;;;;;;24.30;15.10;;;;;;;;;;5092634;28;20425;-54
2022/03/27 04:10:50;;;;;;;23.10;15.80;;;;;;;;;;5093612;28;20413;-57
2022/03/27 04:13:16;;;;;;;22.33;15.37;;;;;;;;;;5096724;28;20409;-58
2022/03/27 04:15:42;;;;;;;21.90;15.40;;;;;;;;;;5096801;28;20397;-55
2022/03/27 04:18:09;;;;;;;19.90;14.70;;;;;;;;;;5078248;28;20548;-55
2022/03/27 04:20:35;;;;;;;23.03;15.40;;;;;;;;;;5096749;28;20406;-53
2022/03/27 04:23:01;;;;;;;22.27;15.37;;;;;;;;;;5096720;28;20508;-54
2022/03/27 04:25:27;;;;;;;23.93;15.00;;;;;;;;;;5096692;28;20402;-53
2022/03/27 04:27:53;;;;;;;21.90;14.70;;;;;;;;;;5096776;28;20426;-54
2022/03/27 04:30:20;;;;;;;25.80;15.13;;;;;;;;;;5096529;28;20410;-54
2022/03/27 04:32:47;;;;;;;21.73;14.60;;;;;;;;;;5096398;28;20452;-51
2022/03/27 04:35:14;;;;;;;23.70;15.40;;;;;;;;;;5096495;28;20405;-51
2022/03/27 04:37:40;;;;;;;23.20;15.47;;;;;;;;;;5096247;28;20469;-52
2022/03/27 04:40:07;;;;;;;29.60;15.17;;;;;;;;;;5096400;28;20409;-56
2022/03/27 04:42:33;;;;;;;20.80;14.40;;;;;;;;;;5096259;28;20436;-53
2022/03/27 04:44:59;;;;;;;19.63;13.70;;;;;;;;;;5096246;28;20898;-55
2022/03/27 04:47:25;;;;;;;29.20;14.60;;;;;;;;;;5096371;28;20454;-55
2022/03/27 04:49:51;;;;;;;23.20;14.80;;;;;;;;;;5096181;28;20894;-54
2022/03/27 04:52:17;;;;;;;22.30;14.47;;;;;;;;;;5096138;28;20409;-54
2022/03/27 04:54:43;;;;;;;20.43;13.60;;;;;;;;;;5096107;28;20770;-54
2022/03/27 04:57:09;;;;;;;24.80;14.80;;;;;;;;;;5095991;28;20556;-53
2022/03/27 04:59:35;;;;;;;24.87;14.50;;;;;;;;;;5077771;28;20445;-54
2022/03/27 05:02:01;;;;;;;22.50;14.37;;;;;;;;;;5095938;28;20406;-51
2022/03/27 05:04:28;;;;;;;21.93;14.00;;;;;;;;;;5096043;28;20405;-53
2022/03/27 05:06:54;;;;;;;20.90;13.50;;;;;;;;;;5095858;28;20462;-54
2022/03/27 05:09:21;;;;;;;20.43;13.40;;;;;;;;;;5095849;28;20402;-53
2022/03/27 05:11:47;;;;;;;28.10;14.47;;;;;;;;;;5077591;28;20406;-55
2022/03/27 05:14:13;;;;;;;25.93;14.57;;;;;;;;;;5095763;28;20883;-53
2022/03/27 05:16:39;;;;;;;24.53;14.90;;;;;;;;;;5095640;28;20610;-54
2022/03/27 05:19:05;;;;;;;20.63;13.50;;;;;;;;;;5077250;28;20473;-52
2022/03/27 05:21:32;;;;;;;25.67;14.90;;;;;;;;;;5095337;28;20405;-54
2022/03/27 05:23:58;;;;;;;21.10;14.50;;;;;;;;;;5095488;28;20821;-52
2022/03/27 05:26:24;;;;;;;23.23;14.80;;;;;;;;;;5095688;28;20406;-53
2022/03/27 05:28:50;;;;;;;19.70;14.30;;;;;;;;;;5095489;28;20464;-54
2022/03/27 05:31:17;;;;;;;21.83;14.60;;;;;;;;;;5095289;28;20406;-53
2022/03/27 05:33:43;;;;;;;20.80;14.00;;;;;;;;;;5077190;28;20418;-55
2022/03/27 05:36:09;;;;;;;20.80;14.07;;;;;;;;;;5095099;28;20409;-52
2022/03/27 05:38:37;;;;;;;22.93;14.57;;;;;;;;;;5095297;28;20421;-55
2022/03/27 05:41:04;;;;;;;22.30;14.20;;;;;;;;;;5095137;28;20413;-54
2022/03/27 05:43:30;;;;;;;20.20;14.13;;;;;;;;;;5095150;28;20490;-54
2022/03/27 05:45:56;;;;;;;22.93;14.73;;;;;;;;;;5095534;28;20803;-53
2022/03/27 05:48:22;;;;;;;22.87;14.60;;;;;;;;;;5095427;28;20474;-52
2022/03/27 05:50:48;;;;;;;19.00;13.30;;;;;;;;;;5094998;28;20412;-57
2022/03/27 05:53:15;;;;;;;23.37;15.97;;;;;;;;;;5094905;28;20429;-51
2022/03/27 05:55:45;;;;;;;23.30;14.73;;;;;;;;;;5094851;28;20406;-54
2022/03/27 05:58:11;;;;;;;43.43;14.17;;;;;;;;;;5076711;28;20806;-53
2022/03/27 06:00:37;;;;;;;21.50;14.93;;;;;;;;;;5094738;28;20414;-55
2022/03/27 06:03:03;;;;;;;25.13;15.67;;;;;;;;;;5094844;28;20410;-53
2022/03/27 06:05:29;;;;;;;20.73;14.60;;;;;;;;;;5094670;28;20413;-55
2022/03/27 06:07:56;;;;;;;20.80;14.40;;;;;;;;;;5094811;28;20912;-51
2022/03/27 06:10:23;;;;;;;22.77;14.50;;;;;;;;;;5094826;28;20489;-54
2022/03/27 06:12:50;;;;;;;21.40;14.47;;;;;;;;;;5094530;28;20414;-51
2022/03/27 06:15:16;;;;;;;22.83;15.20;;;;;;;;;;5094531;28;20472;-54
2022/03/27 06:17:44;;;;;;;26.23;14.20;;;;;;;;;;5094326;28;20886;-62
2022/03/27 06:20:12;;;;;;;23.63;14.83;;;;;;;;;;5075916;28;20501;-61
2022/03/27 06:22:39;;;;;;;21.50;14.63;;;;;;;;;;5094349;28;20413;-62
2022/03/27 06:25:05;;;;;;;21.10;13.83;;;;;;;;;;5094319;28;20942;-61
2022/03/27 06:27:34;;;;;;;20.43;14.10;;;;;;;;;;5094178;28;20414;-56
2022/03/27 06:30:00;;;;;;;20.20;14.47;;;;;;;;;;5094135;28;20448;-60
2022/03/27 06:32:26;;;;;;;20.80;14.30;;;;;;;;;;5094313;28;20417;-57
2022/03/27 06:34:57;;;;;;;24.30;15.70;;;;;;;;;;5093407;28;20418;-55
2022/03/27 06:37:23;;;;;;;23.50;14.20;;;;;;;;;;5094115;28;20492;-56
2022/03/27 06:39:49;;;;;;;20.40;14.77;;;;;;;;;;5075848;28;20402;-57
2022/03/27 06:42:15;;;;;;;18.70;14.47;;;;;;;;;;5094157;28;20444;-52
2022/03/27 06:44:41;;;;;;;21.30;14.77;;;;;;;;;;5076210;28;20417;-52
2022/03/27 06:47:08;;;;;;;24.67;16.00;;;;;;;;;;5094028;28;20906;-56
2022/03/27 06:49:35;;;;;;;26.70;14.77;;;;;;;;;;5093721;28;20410;-54
2022/03/27 06:52:01;;;;;;;19.90;14.90;;;;;;;;;;5075583;28;20417;-55
2022/03/27 06:54:29;;;;;;;17.70;13.10;;;;;;;;;;5093789;28;20401;-55
2022/03/27 06:56:58;;;;;;;21.20;15.27;;;;;;;;;;5091326;28;20512;-55
2022/03/27 06:59:24;;;;;;;20.03;14.37;;;;;;;;;;5093592;28;20489;-56
2022/03/27 07:04:37;;;;;;;18.10;13.50;;;;;;;;;;5093636;28;20459;-58
2022/03/27 07:07:03;;;;;;;21.77;13.80;;;;;;;;;;5075281;28;20433;-54
2022/03/27 07:09:29;;;;;;;16.23;12.50;;;;;;;;;;5093499;28;20410;-56
2022/03/27 07:11:58;;;;;;;19.00;12.97;;;;;;;;;;5075294;28;20414;-60
2022/03/27 07:14:24;;;;;;;19.67;13.17;;;;;;;;;;5093624;28;20493;-58
2022/03/27 07:16:50;;;;;;;17.43;13.23;;;;;;;;;;5093392;28;20473;-57
2022/03/27 07:19:19;;;;;;;19.73;12.80;;;;;;;;;;5093084;28;20442;-58
2022/03/27 07:21:46;;;;;;;18.37;13.30;;;;;;;;;;5075062;28;20475;-56
2022/03/27 07:24:12;;;;;;;18.80;13.87;;;;;;;;;;5075273;28;20817;-61
2022/03/27 07:26:38;;;;;;;18.73;12.80;;;;;;;;;;5093129;28;20414;-58
2022/03/27 07:29:05;;;;;;;14.30;12.40;;;;;;;;;;5093127;28;20770;-60
2022/03/27 07:31:31;;;;;;;16.37;13.00;;;;;;;;;;5092967;28;20413;-59
2022/03/27 07:33:57;;;;;;;17.53;12.43;;;;;;;;;;5093184;28;20402;-57
2022/03/27 07:36:23;;;;;;;18.87;13.40;;;;;;;;;;5093090;28;20456;-61
2022/03/27 07:38:49;;;;;;;18.50;13.43;;;;;;;;;;5093067;28;20414;-58
2022/03/27 07:41:15;;;;;;;17.67;12.23;;;;;;;;;;5093049;28;20402;-59
2022/03/27 07:43:45;;;;;;;18.17;12.57;;;;;;;;;;5092828;28;20416;-55
2022/03/27 07:46:10;;;;;;;18.67;12.90;;;;;;;;;;5092808;28;20406;-58
2022/03/27 07:48:36;;;;;;;15.70;11.83;;;;;;;;;;5092780;28;20420;-54
2022/03/27 07:51:04;;;;;;;14.30;11.87;;;;;;;;;;5092919;28;20410;-57
2022/03/27 07:53:30;;;;;;;14.67;12.00;;;;;;;;;;5092859;28;20489;-62
2022/03/27 07:55:56;;;;;;;19.53;12.80;;;;;;;;;;5074859;28;20864;-57
2022/03/27 07:58:22;;;;;;;20.00;12.93;;;;;;;;;;5093013;28;20403;-59
2022/03/27 08:00:48;;;;;;;16.03;12.33;;;;;;;;;;5074664;28;20406;-58
2022/03/27 08:03:14;;;;;;;14.03;10.83;;;;;;;;;;5092687;28;20410;-59
2022/03/27 08:05:42;;;;;;;13.30;11.50;;;;;;;;;;5092725;28;20402;-61
2022/03/27 08:08:08;;;;;;;17.43;12.07;;;;;;;;;;5092626;28;20921;-57
2022/03/27 08:10:34;;;;;;;14.53;12.17;;;;;;;;;;5092713;28;20398;-59
2022/03/27 08:13:00;;;;;;;15.37;11.50;;;;;;;;;;5092619;28;20414;-58
2022/03/27 08:15:26;;;;;;;14.70;12.27;;;;;;;;;;5092741;28;20452;-54
2022/03/27 08:17:53;;;;;;;14.83;11.77;;;;;;;;;;5092540;28;20461;-55
2022/03/27 08:20:21;;;;;;;19.10;15.53;;;;;;;;;;5092360;28;21027;-55
2022/03/27 08:22:47;;;;;;;19.77;12.60;;;;;;;;;;5092545;28;20441;-59
2022/03/27 08:26:55;;;;;;;15.30;11.50;;;;;;;;;;5092532;28;20397;-53
2022/03/27 08:27:59;;;;;;;13.97;11.17;;;;;;;;;;5092271;28;20467;-55
2022/03/27 08:30:25;;;;;;;15.70;12.60;;;;;;;;;;5092574;28;20401;-54
2022/03/27 08:32:51;;;;;;;16.33;11.20;;;;;;;;;;5092292;28;20417;-57
2022/03/27 08:35:17;;;;;;;16.03;11.53;;;;;;;;;;5092373;28;20911;-56
2022/03/27 08:37:43;;;;;;;15.33;11.80;;;;;;;;;;5092153;28;20464;-58
2022/03/27 08:40:09;;;;;;;14.77;11.80;;;;;;;;;;5074637;28;20418;-57
2022/03/27 08:42:39;;;;;;;16.03;12.20;;;;;;;;;;5092279;28;20406;-60
2022/03/27 08:45:05;;;;;;;14.07;11.37;;;;;;;;;;5092364;28;20504;-53
2022/03/27 08:47:31;;;;;;;15.13;11.70;;;;;;;;;;5092218;28;20989;-57
2022/03/27 08:50:14;;;;;;;14.50;11.60;;;;;;;;;;5073948;28;20817;-60
2022/03/27 08:52:55;;;;;;;12.27;10.47;;;;;;;;;;5092307;28;20409;-54
2022/03/27 08:55:41;;;;;;;22.63;10.50;;;;;;;;;;5074068;28;20420;-57
2022/03/27 08:58:09;;;;;;;11.63;9.60;;;;;;;;;;5095149;28;20478;-57
2022/03/27 09:00:35;;;;;;;13.47;11.37;;;;;;;;;;5096036;28;20402;-60
2022/03/27 09:03:02;;;;;;;13.03;11.00;;;;;;;;;;5095983;28;20410;-62
2022/03/27 09:05:29;;;;;;;12.60;10.63;;;;;;;;;;5095905;28;20405;-59
2022/03/27 09:07:57;;;;;;;15.30;12.37;;;;;;;;;;5096070;28;20402;-55
2022/03/27 09:10:24;;;;;;;11.13;10.03;;;;;;;;;;5095858;28;20414;-56
2022/03/27 09:12:51;;;;;;;10.83;9.53;;;;;;;;;;5095766;28;20410;-57
2022/03/27 09:15:19;;;;;;;15.57;9.90;;;;;;;;;;5111373;28;20949;-61
2022/03/27 09:18:15;;;;;;;10.17;9.17;;;;;;;;;;5095622;28;20874;-56
2022/03/27 09:20:42;;;;;;;13.13;10.73;;;;;;;;;;5082556;28;20944;-55
2022/03/27 09:23:28;;;;;;;14.33;10.30;;;;;;;;;;5095476;28;20501;-59
2022/03/27 09:25:58;;;;;;;12.23;9.60;;;;;;;;;;5095621;28;20397;-60
2022/03/27 09:28:28;;;;;;;10.60;9.47;;;;;;;;;;5095570;28;20505;-60
2022/03/27 09:30:58;;;;;;;12.37;9.90;;;;;;;;;;5095666;28;20402;-57
2022/03/27 09:33:48;;;;;;;12.90;10.63;;;;;;;;;;5095437;28;20406;-59
2022/03/27 09:36:16;;;;;;;13.40;10.70;;;;;;;;;;5095163;28;20398;-54
2022/03/27 09:38:57;;;;;;;10.07;9.03;;;;;;;;;;5076965;28;20430;-58
2022/03/27 09:41:34;;;;;;;9.60;8.60;;;;;;;;;;5095174;28;20401;-57
2022/03/27 09:44:01;;;;;;;8.47;7.60;;;;;;;;;;5095065;28;20409;-59
2022/03/27 09:46:27;;;;;;;9.97;8.37;;;;;;;;;;5095065;28;20452;-55
2022/03/27 09:48:57;;;;;;;9.60;8.60;;;;;;;;;;5095043;28;20459;-55
2022/03/27 09:51:23;;;;;;;10.63;8.30;;;;;;;;;;5095003;28;20451;-59
2022/03/27 09:53:57;;;;;;;11.20;8.83;;;;;;;;;;5094772;28;20405;-57
2022/03/27 09:56:28;;;;;;;10.50;8.20;;;;;;;;;;5094954;28;20528;-55
2022/03/27 09:58:57;;;;;;;8.53;7.67;;;;;;;;;;5094930;28;20471;-59
2022/03/27 10:01:24;;;;;;;9.10;8.20;;;;;;;;;;5110505;28;20417;-56
2022/03/27 10:03:58;;;;;;;9.37;8.23;;;;;;;;;;5094670;28;20426;-57
2022/03/27 10:06:40;;;;;;;11.10;8.30;;;;;;;;;;5094674;28;20410;-54
2022/03/27 10:09:10;;;;;;;8.63;7.73;;;;;;;;;;5093412;28;20899;-58
2022/03/27 10:11:37;;;;;;;8.80;7.93;;;;;;;;;;5094526;28;20855;-55
2022/03/27 10:14:04;;;;;;;9.40;8.50;;;;;;;;;;5110660;28;20531;-55
2022/03/27 10:16:51;;;;;;;9.13;8.23;;;;;;;;;;5094333;28;20927;-56
2022/03/27 10:19:37;;;;;;;9.97;8.80;;;;;;;;;;5094156;28;20442;-56
2022/03/27 10:22:03;;;;;;;10.47;9.47;;;;;;;;;;5094685;28;20409;-60
2022/03/27 10:24:31;;;;;;;10.80;9.50;;;;;;;;;;5109955;28;20422;-60
2022/03/27 10:27:01;;;;;;;10.63;9.43;;;;;;;;;;5094145;28;20469;-59
2022/03/27 10:29:30;;;;;;;12.40;9.30;;;;;;;;;;5094286;28;20405;-55
2022/03/27 10:32:05;;;;;;;10.13;9.13;;;;;;;;;;5110019;28;20489;-59
2022/03/27 10:34:33;;;;;;;10.70;9.60;;;;;;;;;;5094051;28;20498;-53
2022/03/27 10:36:59;;;;;;;10.93;9.83;;;;;;;;;;5093933;28;20458;-55
2022/03/27 10:39:26;;;;;;;11.40;10.07;;;;;;;;;;5094082;28;20414;-54
2022/03/27 10:41:57;;;;;;;14.10;10.07;;;;;;;;;;5094301;28;20804;-54
2022/03/27 10:44:42;;;;;;;13.17;9.10;;;;;;;;;;5094043;28;20530;-54
2022/03/27 10:47:14;;;;;;;10.63;9.40;;;;;;;;;;5109754;28;20420;-55
2022/03/27 10:49:41;;;;;;;10.90;9.90;;;;;;;;;;5093672;28;20418;-58
2022/03/27 10:52:08;;;;;;;10.33;9.17;;;;;;;;;;5093592;28;20401;-54
2022/03/27 10:54:54;;;;;;;11.50;9.90;;;;;;;;;;5093504;28;20410;-57
2022/03/27 10:57:30;;;;;;;10.10;9.10;;;;;;;;;;5093486;28;20469;-55
2022/03/27 10:59:56;;;;;;;8.60;7.80;;;;;;;;;;5093599;28;20504;-55
2022/03/27 11:02:53;;;;;;;9.37;8.40;;;;;;;;;;5093569;28;20931;-58
2022/03/27 11:05:36;;;;;;;10.17;9.17;;;;;;;;;;5092366;28;20487;-58
2022/03/27 11:08:15;;;;;;;9.70;8.70;;;;;;;;;;5093575;28;20394;-59
2022/03/27 11:10:41;;;;;;;9.40;8.60;;;;;;;;;;5093171;28;20394;-55
2022/03/27 11:13:28;;;;;;;11.93;8.07;;;;;;;;;;5093369;28;20398;-55
2022/03/27 11:16:03;;;;;;;8.73;8.00;;;;;;;;;;5108866;28;20405;-56
2022/03/27 11:18:35;;;;;;;12.40;9.93;;;;;;;;;;5093353;28;20487;-56
2022/03/27 11:21:05;;;;;;;14.43;9.07;;;;;;;;;;5108378;28;20429;-60
2022/03/27 11:23:32;;;;;;;9.40;8.30;;;;;;;;;;5093239;28;20434;-60
2022/03/27 11:25:59;;;;;;;9.47;8.50;;;;;;;;;;5093177;28;20514;-57
2022/03/27 11:28:26;;;;;;;8.57;7.57;;;;;;;;;;5108253;28;20415;-56
2022/03/27 11:30:55;;;;;;;8.93;8.13;;;;;;;;;;5093276;28;20490;-58
2022/03/27 11:33:26;;;;;;;11.83;9.80;;;;;;;;;;5092870;28;20977;-59
2022/03/27 11:36:04;;;;;;;9.77;8.60;;;;;;;;;;5093193;28;20475;-56
2022/03/27 11:38:30;;;;;;;9.33;8.43;;;;;;;;;;5093038;28;20451;-58
2022/03/27 11:40:57;;;;;;;9.00;8.10;;;;;;;;;;5093198;28;20409;-58
2022/03/27 11:43:30;;;;;;;9.63;8.63;;;;;;;;;;5093131;28;20754;-60
2022/03/27 11:45:56;;;;;;;8.90;8.03;;;;;;;;;;5092969;28;20402;-57
2022/03/27 11:48:23;;;;;;;9.60;8.63;;;;;;;;;;5092873;28;20409;-59
2022/03/27 11:50:49;;;;;;;9.93;8.93;;;;;;;;;;5092750;28;20413;-62
2022/03/27 11:53:16;;;;;;;9.07;8.20;;;;;;;;;;5108460;28;20417;-62
2022/03/27 11:55:42;;;;;;;11.70;8.80;;;;;;;;;;5092697;28;20407;-60
2022/03/27 11:58:10;;;;;;;9.93;9.03;;;;;;;;;;5108289;28;20473;-62
2022/03/27 12:00:44;;;;;;;9.03;8.23;;;;;;;;;;5092670;28;20406;-61
2022/03/27 12:03:14;;;;;;;14.60;8.20;;;;;;;;;;5092752;28;20409;-59
2022/03/27 12:05:41;;;;;;;9.03;8.10;;;;;;;;;;5092608;28;20402;-59
2022/03/27 12:08:08;;;;;;;9.80;8.20;;;;;;;;;;5092613;28;20406;-55
2022/03/27 12:10:41;;;;;;;10.43;8.90;;;;;;;;;;5092598;28;20402;-60
2022/03/27 12:13:08;;;;;;;9.57;8.53;;;;;;;;;;5108226;28;20418;-57
2022/03/27 12:15:47;;;;;;;9.33;8.00;;;;;;;;;;5092726;28;20410;-62
2022/03/27 12:18:14;;;;;;;9.53;8.57;;;;;;;;;;5092318;28;20877;-59
2022/03/27 12:20:49;;;;;;;9.57;8.53;;;;;;;;;;5092679;28;20891;-61
2022/03/27 12:23:22;;;;;;;10.40;8.67;;;;;;;;;;5092437;28;20401;-59
2022/03/27 12:25:59;;;;;;;8.97;8.17;;;;;;;;;;5092377;28;20401;-63
2022/03/27 12:31:19;;;;;;;9.43;8.50;;;;;;;;;;5092494;28;20413;-57
2022/03/27 12:33:46;;;;;;;9.93;8.93;;;;;;;;;;5112217;28;20774;-55
2022/03/27 12:36:13;;;;;;;9.37;8.47;;;;;;;;;;5112502;28;20420;-61
2022/03/27 12:38:40;;;;;;;9.40;8.60;;;;;;;;;;5096610;28;20421;-55
2022/03/27 12:41:08;;;;;;;9.87;8.87;;;;;;;;;;5096437;28;20489;-57
2022/03/27 12:43:34;;;;;;;9.73;8.67;;;;;;;;;;5096143;28;20409;-55
2022/03/27 12:46:17;;;;;;;9.33;8.43;;;;;;;;;;5112019;28;20405;-58
2022/03/27 12:48:43;;;;;;;9.00;8.20;;;;;;;;;;5096246;28;20688;-55
2022/03/27 12:51:12;;;;;;;8.93;7.90;;;;;;;;;;5096016;28;20607;-57
2022/03/27 12:53:38;;;;;;;12.23;9.13;;;;;;;;;;5096082;28;20405;-57
2022/03/27 12:56:05;;;;;;;9.07;8.20;;;;;;;;;;5095929;28;20402;-56
2022/03/27 12:58:39;;;;;;;9.00;8.20;;;;;;;;;;5095903;28;20890;-56
2022/03/27 13:01:05;;;;;;;8.97;8.07;;;;;;;;;;5111797;28;20413;-58
2022/03/27 13:03:31;;;;;;;8.23;7.50;;;;;;;;;;5095908;28;20418;-59
2022/03/27 13:06:16;;;;;;;9.90;8.40;;;;;;;;;;5095838;28;20933;-59
2022/03/27 13:08:43;;;;;;;11.10;9.10;;;;;;;;;;5095675;28;20539;-55
2022/03/27 13:11:08;;;;;;;8.03;7.33;;;;;;;;;;5095726;28;20401;-56
2022/03/27 13:13:42;;;;;;;8.90;8.00;;;;;;;;;;5095708;28;20405;-55
2022/03/27 13:16:27;;;;;;;11.00;7.67;;;;;;;;;;5095701;28;20966;-57
2022/03/27 13:19:13;;;;;;;8.67;7.30;;;;;;;;;;5095674;28;20544;-57
2022/03/27 13:21:56;;;;;;;8.77;7.87;;;;;;;;;;5095481;28;20918;-57
2022/03/27 13:24:25;;;;;;;10.33;8.20;;;;;;;;;;5111318;28;20441;-60
2022/03/27 13:26:53;;;;;;;9.10;7.30;;;;;;;;;;5095485;28;20480;-60
2022/03/27 13:29:20;;;;;;;7.83;7.20;;;;;;;;;;5095365;28;20489;-61
2022/03/27 13:31:49;;;;;;;8.07;7.27;;;;;;;;;;5095324;28;20394;-59
2022/03/27 13:34:16;;;;;;;8.27;7.57;;;;;;;;;;5095393;28;20417;-60
2022/03/27 13:36:44;;;;;;;8.27;7.50;;;;;;;;;;5095159;28;20798;-62
2022/03/27 13:39:11;;;;;;;8.37;7.57;;;;;;;;;;5095341;28;20410;-61
2022/03/27 13:44:23;;;;;;;7.60;6.90;;;;;;;;;;5095307;28;20435;-60
2022/03/27 13:46:50;;;;;;;7.23;6.73;;;;;;;;;;5094997;28;20474;-59
2022/03/27 13:49:17;;;;;;;8.43;6.77;;;;;;;;;;5095031;28;20914;-58
2022/03/27 13:51:43;;;;;;;8.00;7.30;;;;;;;;;;5095102;28;20906;-56
2022/03/27 13:54:09;;;;;;;8.20;7.40;;;;;;;;;;5094982;28;21035;-60
2022/03/27 13:56:40;;;;;;;8.73;7.97;;;;;;;;;;5095184;28;20453;-62
2022/03/27 13:59:07;;;;;;;8.27;7.57;;;;;;;;;;5094856;28;20421;-60
2022/03/27 14:01:36;;;;;;;7.77;7.00;;;;;;;;;;5094902;28;20402;-61
2022/03/27 14:04:06;;;;;;;8.07;7.37;;;;;;;;;;5094734;28;20425;-64
2022/03/27 14:06:32;;;;;;;7.90;7.20;;;;;;;;;;5094636;28;20402;-58
2022/03/27 14:08:58;;;;;;;8.20;7.50;;;;;;;;;;5094587;28;20866;-63
2022/03/27 14:11:24;;;;;;;8.60;7.70;;;;;;;;;;5094739;28;20405;-54
2022/03/27 14:13:50;;;;;;;8.00;7.30;;;;;;;;;;5094459;28;20482;-58
2022/03/27 14:16:16;;;;;;;8.20;7.50;;;;;;;;;;5094538;28;20894;-58
2022/03/27 14:18:45;;;;;;;7.90;7.13;;;;;;;;;;5094139;28;20253;-61
2022/03/27 14:21:11;;;;;;;9.33;8.43;;;;;;;;;;5094494;28;20463;-59
2022/03/27 14:23:38;;;;;;;9.10;8.23;;;;;;;;;;5094307;28;20410;-59
2022/03/27 14:26:04;;;;;;;9.00;8.20;;;;;;;;;;5094223;28;20406;-62
2022/03/27 14:28:31;;;;;;;11.33;8.97;;;;;;;;;;5094291;28;20429;-56
2022/03/27 14:30:58;;;;;;;10.13;8.90;;;;;;;;;;5094132;28;20413;-56
2022/03/27 14:33:24;;;;;;;10.23;9.00;;;;;;;;;;5094300;28;20413;-58
2022/03/27 14:35:51;;;;;;;9.47;8.47;;;;;;;;;;5094017;28;20487;-57
2022/03/27 14:38:17;;;;;;;9.57;8.67;;;;;;;;;;5094066;28;20461;-55